Flight Track Log - Related Links

Times and Time Zones

All times are in EDT time to prevent confusion due to time zone crossing. See the EJA922 flight status page for this flight to view local times or setup timezone preferences in your user account.


Time Position Orientation Groundspeed Altitude Reporting Facility
EDT Latitude Longitude Course Direction KTS MPH feet Rate Location/Type
Wed 07:10:32 PM 35.3958 -97.5900 North 161 185 1,800  Level Fort Worth Center
Wed 07:10:56 PM 35.4206 -97.5858 North 181 208 3,300 2,653 Climbing Fort Worth Center
Wed 07:12:07 PM 35.4844 -97.5447 28° Northeast 250 288 6,000 2,391 Climbing Fort Worth Center
Wed 07:13:09 PM 35.5217 -97.4611 61° Northeast 279 321 8,600 2,177 Climbing Fort Worth Center
Wed 07:14:11 PM 35.5611 -97.3681 62° Northeast 317 365 10,500 1,790 Climbing Fort Worth Center
Wed 07:15:13 PM 35.6078 -97.2547 63° Northeast 362 417 12,300 1,984 Climbing Fort Worth Center
Wed 07:16:15 PM 35.6572 -97.1350 63° Northeast 384 442 14,600 2,371 Climbing Fort Worth Center
Wed 07:17:17 PM 35.7167 -96.9886 63° Northeast 393 452 17,200 1,935 Climbing Fort Worth Center
Wed 07:18:19 PM 35.7686 -96.8608 63° Northeast 411 473 18,600 1,488 Climbing Fort Worth Center
Wed 07:19:22 PM 35.8244 -96.7267 63° Northeast 433 498 20,300 1,462 Climbing Fort Worth Center
Wed 07:20:18 PM 35.8661 -96.6178 65° Northeast 439 505 21,500 1,500 Climbing Kansas City Center
Wed 07:21:18 PM 35.9342 -96.4500 63° Northeast 451 519 23,200 1,536 Climbing Kansas City Center
Wed 07:22:23 PM 35.9931 -96.3025 64° Northeast 461 531 24,700 1,370 Climbing Kansas City Center
Wed 07:23:25 PM 36.0508 -96.1556 64° Northeast 470 541 26,100 1,463 Climbing Kansas City Center
Wed 07:24:26 PM 36.1094 -96.0094 64° Northeast 473 544 27,700 1,548 Climbing Kansas City Center
Wed 07:25:29 PM 36.1683 -95.8589 64° Northeast 482 555 29,300 1,415 Climbing Kansas City Center
Wed 07:26:29 PM 36.2289 -95.7161 62° Northeast 485 558 30,600 1,403 Climbing Kansas City Center
Wed 07:27:33 PM 36.3172 -95.5383 58° Northeast 502 578 32,200 1,429 Climbing Kansas City Center
Wed 07:28:35 PM 36.3917 -95.3825 59° Northeast 516 594 33,600 1,377 Climbing Kansas City Center
Wed 07:29:35 PM 36.4672 -95.2256 59° Northeast 526 605 35,000 968 Climbing Kansas City Center
Wed 07:30:39 PM 36.5422 -95.0672 59° Northeast 544 626 35,600 960 Climbing Kansas City Center
Wed 07:31:40 PM 36.6217 -94.9022 59° Northeast 552 635 37,000 1,686 Climbing Kansas City Center
Wed 07:32:40 PM 36.7158 -94.7039 59° Northeast 553 636 39,000 1,839 Climbing Kansas City Center
Wed 07:33:44 PM 36.7928 -94.5425 59° Northeast 546 628 40,800 960 Climbing Kansas City Center
Wed 07:34:45 PM 36.8675 -94.3842 59° Northeast 535 616 41,000 -290 Climbing Kansas City Center
Wed 07:35:48 PM 36.9403 -94.2283 60° Northeast 524 603 40,200 -968 Descending Kansas City Center
Wed 07:36:49 PM 37.0119 -94.0733 60° Northeast 518 596 39,000 -1,306 Descending Kansas City Center
Wed 07:37:52 PM 37.0897 -93.9086 59° Northeast 544 626 37,500 -1,548 Descending Kansas City Center
Wed 07:38:53 PM 37.1819 -93.7086 60° Northeast 573 659 35,800 -1,610 Descending Kansas City Center
Wed 07:39:55 PM 37.2633 -93.5319 60° Northeast 580 667 34,200 -1,488 Descending Kansas City Center
Wed 07:40:58 PM 37.3469 -93.3558 59° Northeast 583 671 32,700 -1,440 Descending Kansas City Center
Wed 07:42:00 PM 37.4494 -93.2003 50° Northeast 579 666 31,200 -1,440 Descending Kansas City Center
Wed 07:43:03 PM 37.5639 -93.0564 45° Northeast 577 664 29,700 -1,065 Descending Kansas City Center
Wed 07:44:04 PM 37.6975 -92.8808 46° Northeast 577 664 29,000 -344 Descending Kansas City Center
Wed 07:45:05 PM 37.7964 -92.7494 46° Northeast 560 644 29,000  Level Kansas City Center
Wed 07:46:09 PM 37.9006 -92.6108 46° Northeast 550 633 29,000  Level Kansas City Center
Wed 07:47:11 PM 38.0075 -92.4672 47° Northeast 561 646 29,000  Level Kansas City Center
Wed 07:48:12 PM 38.1186 -92.3236 45° Northeast 571 657 29,000  Level Kansas City Center
Wed 07:49:13 PM 38.2447 -92.1519 47° Northeast 573 659 29,000  Level Kansas City Center
Wed 07:50:17 PM 38.3539 -92.0033 47° Northeast 573 659 29,000  Level Kansas City Center
Wed 07:51:19 PM 38.4636 -91.8528 47° Northeast 573 659 29,000  Level Kansas City Center
Wed 07:52:20 PM 38.5739 -91.7025 47° Northeast 574 661 29,000  Level Kansas City Center
Wed 07:53:23 PM 38.6856 -91.5514 47° Northeast 576 663 29,000  Level Kansas City Center
Wed 07:54:23 PM 38.8003 -91.3928 47° Northeast 584 672 29,000  Level Kansas City Center
Wed 07:55:27 PM 38.9133 -91.2381 47° Northeast 586 674 29,000  Level Kansas City Center
Wed 07:56:29 PM 39.0483 -91.0514 47° Northeast 588 677 29,000  Level Kansas City Center
Wed 07:57:30 PM 39.1586 -90.8983 47° Northeast 584 672 29,000  Level Kansas City Center
Wed 07:58:31 PM 39.2706 -90.7433 47° Northeast 583 671 29,000  Level Kansas City Center
Wed 07:59:34 PM 39.3825 -90.5836 48° Northeast 591 680 29,000  Level Kansas City Center
Wed 08:00:37 PM 39.4947 -90.4239 48° Northeast 593 682 29,000  Level Kansas City Center
Wed 08:01:39 PM 39.6081 -90.2639 47° Northeast 596 686 29,000  Level Kansas City Center
Wed 08:02:39 PM 39.7192 -90.1017 48° Northeast 599 689 29,000  Level Kansas City Center
Wed 08:03:43 PM 39.8331 -89.9372 48° Northeast 600 690 29,000  Level Kansas City Center
Wed 08:04:43 PM 39.9656 -89.7447 48° Northeast 599 689 29,000  Level Kansas City Center
Wed 08:05:47 PM 40.0744 -89.5853 48° Northeast 599 689 29,000  Level Kansas City Center
Wed 08:06:38 PM 40.1611 -89.4603 48° Northeast 597 687 29,000  Level Chicago Center
Wed 08:08:42 PM 40.3989 -89.1083 48° Northeast 590 679 29,000  Level Chicago Center
Wed 08:09:44 PM 40.5072 -88.9489 48° Northeast 590 679 29,000  Level Chicago Center
Wed 08:10:46 PM 40.6078 -88.7956 49° Northeast 587 676 29,000  Level Chicago Center
Wed 08:11:48 PM 40.7369 -88.6028 48° Northeast 585 673 29,000  Level Chicago Center
Wed 08:12:50 PM 40.8431 -88.4436 49° Northeast 583 671 29,000  Level Chicago Center
Wed 08:13:52 PM 40.9475 -88.2844 49° Northeast 580 667 29,000  Level Chicago Center
Wed 08:14:54 PM 41.0517 -88.1233 49° Northeast 580 667 29,000  Level Chicago Center
Wed 08:15:56 PM 41.1553 -87.9658 49° Northeast 578 665 29,000  Level Chicago Center
Wed 08:16:58 PM 41.2764 -87.7758 50° Northeast 575 662 29,000 -968 Level Chicago Center
Wed 08:18:00 PM 41.3744 -87.6256 49° Northeast 549 632 27,000 -2,371 Descending Chicago Center
Wed 08:19:02 PM 41.4703 -87.4764 49° Northeast 538 619 24,100 -3,145 Descending Chicago Center
Wed 08:20:04 PM 41.5586 -87.3397 49° Northeast 490 564 20,500 -3,677 Descending Chicago Center
Wed 08:21:06 PM 41.6592 -87.1806 50° Northeast 476 548 16,500 -2,177 Descending Chicago Center
Wed 08:22:08 PM 41.7378 -87.0564 50° Northeast 444 511 16,000 -1,065 Descending Chicago Center
Wed 08:23:10 PM 41.8197 -86.9253 50° Northeast 432 497 14,300 -2,032 Descending Chicago Center
Wed 08:24:12 PM 41.8883 -86.8167 50° Northeast 384 442 11,800 -2,323 Descending Chicago Center
Wed 08:25:14 PM 41.9489 -86.7153 51° Northeast 319 367 9,500 -2,661 Descending Chicago Center
Wed 08:26:16 PM 41.9989 -86.6367 49° Northeast 288 331 6,300 -3,097 Descending Chicago Center
Wed 08:27:18 PM 42.0475 -86.5569 51° Northeast 279 321 3,100 -1,790 Descending Chicago Center
Wed 08:28:20 PM 42.0603 -86.4747 78° East 262 302 2,600 -484 Descending Chicago Center

Login

Don't have an account? Register now (free) for customized features, flight alerts, and more!